Mitchel — WDE7728 — position and weather

sailwx.info

Track history (hours):
 
Tides and Currents Weather Stations Pressure Air Temp Water Temp Dewpoint Dewpoint Depression Visibility Wind Speed Wind Dir Waves Ship Positions

Mitchel

Owner: AMERICAN TUGS INC., SAN JUAN, PR. More information available from US FCC via Universal Licensing System and Coast Guard Vessel Documentation Center.

Last reported at 2017-Feb-08 00:33 UTC. Time now 2017-Feb-27 02:14 UTC.
Position N 16°07' W 061°30'.
Warning: this ship's position is 19 days out of date.

Length 27 m; draft 3.6 m.

Type: Tug. MMSI: 367346890.

Date/timePositionNaut miles runAvg speedWind from/ knotsBaromVisibWave heightAir tempDewpointWater temp
2017-Feb-08 00:33N 16°07' W 061°30'5 3.7
2017-Feb-07 23:18N 16°11' W 061°31'2 3.0
2017-Feb-07 22:32N 16°13' W 061°32'1 1.3
2017-Feb-07 21:31N 16°14' W 061°33'0 0.0
2017-Feb-07 20:19N 16°14' W 061°33'0 0.0
2017-Feb-07 19:28N 16°14' W 061°33'0 0.0
2017-Feb-07 18:33N 16°14' W 061°33'0 0.0
2017-Feb-07 17:33N 16°14' W 061°33'0 0.0
2017-Feb-07 16:32N 16°14' W 061°33'0 0.0
2017-Feb-07 15:24N 16°14' W 061°33'0 0.0
2017-Feb-07 14:13N 16°14' W 061°33'0 0.0
2017-Feb-07 13:31N 16°14' W 061°33'0 0.0
2017-Feb-07 12:33N 16°14' W 061°33'0 0.0
2017-Feb-07 11:33N 16°14' W 061°33'0 0.0
2017-Feb-07 10:33N 16°14' W 061°33'0 0.0
2017-Feb-07 09:33N 16°14' W 061°33'0 0.0
2017-Feb-06 18:32N 16°14' W 061°33'0 0.0
2017-Feb-06 17:30N 16°14' W 061°33'0 0.0
2017-Feb-06 16:33N 16°14' W 061°33'0 0.0
2017-Feb-06 15:15N 16°14' W 061°33'0 0.0
2017-Feb-06 14:32N 16°14' W 061°33'1 1.4
2017-Feb-06 13:33N 16°13' W 061°32'2 1.8
2017-Feb-06 12:31N 16°11' W 061°32'4 4.1
2017-Feb-06 11:29N 16°07' W 061°30'21 4.0
2017-Feb-06 06:05N 15°46' W 061°33'2 3.7
2017-Feb-06 05:33N 15°44' W 061°34'  
Track history (hours):
 
Tides and Currents Weather Stations Pressure Air Temp Water Temp Dewpoint Dewpoint Depression Visibility Wind Speed Wind Dir Waves Ship Positions

Mitchel

Owner: AMERICAN TUGS INC., SAN JUAN, PR. More information available from US FCC via Universal Licensing System and Coast Guard Vessel Documentation Center.

Last reported at 2017-Feb-08 00:33 UTC. Time now 2017-Feb-27 02:14 UTC.
Position N 16°07' W 061°30'.
Warning: this ship's position is 19 days out of date.

Length 27 m; draft 3.6 m.

Type: Tug. MMSI: 367346890.

Date/timePositionNaut miles runAvg speedWind from/ knotsBaromVisibWave heightAir tempDewpointWater temp
2017-Feb-08 00:33N 16°07' W 061°30'5 3.7
2017-Feb-07 23:18N 16°11' W 061°31'2 3.0
2017-Feb-07 22:32N 16°13' W 061°32'1 1.3
2017-Feb-07 21:31N 16°14' W 061°33'0 0.0
2017-Feb-07 20:19N 16°14' W 061°33'0 0.0
2017-Feb-07 19:28N 16°14' W 061°33'0 0.0
2017-Feb-07 18:33N 16°14' W 061°33'0 0.0
2017-Feb-07 17:33N 16°14' W 061°33'0 0.0
2017-Feb-07 16:32N 16°14' W 061°33'0 0.0
2017-Feb-07 15:24N 16°14' W 061°33'0 0.0
2017-Feb-07 14:13N 16°14' W 061°33'0 0.0
2017-Feb-07 13:31N 16°14' W 061°33'0 0.0
2017-Feb-07 12:33N 16°14' W 061°33'0 0.0
2017-Feb-07 11:33N 16°14' W 061°33'0 0.0
2017-Feb-07 10:33N 16°14' W 061°33'0 0.0
2017-Feb-07 09:33N 16°14' W 061°33'0 0.0
2017-Feb-06 18:32N 16°14' W 061°33'0 0.0
2017-Feb-06 17:30N 16°14' W 061°33'0 0.0
2017-Feb-06 16:33N 16°14' W 061°33'0 0.0
2017-Feb-06 15:15N 16°14' W 061°33'0 0.0
2017-Feb-06 14:32N 16°14' W 061°33'1 1.4
2017-Feb-06 13:33N 16°13' W 061°32'2 1.8
2017-Feb-06 12:31N 16°11' W 061°32'4 4.1
2017-Feb-06 11:29N 16°07' W 061°30'21 4.0
2017-Feb-06 06:05N 15°46' W 061°33'2 3.7
2017-Feb-06 05:33N 15°44' W 061°34'  

Dump ship's entire track history